Flight Track Log - Related Links

Times and Time Zones

All times are in EDT time to prevent confusion due to time zone crossing. See the EMD21 flight status page for this flight to view local times or setup timezone preferences in your user account.

Time Position Orientation Groundspeed Altitude Reporting Facility
EDT Latitude Longitude Course Direction KTS MPH feet Rate Location/Type
11:34PM 35.5164 -97.6483 129° Southeast 124 143 2,000  Level Fort Worth Center
11:35PM 35.5061 -97.6481 179° South 121 139 2,500 1,291 Climbing Fort Worth Center
11:36PM 35.4875 -97.6150 125° Southeast 130 150 3,700 1,180 Climbing Fort Worth Center
11:37PM 35.4686 -97.5717 118° Southeast 150 173 4,900 1,091 Climbing Fort Worth Center
11:38PM 35.4500 -97.5206 114° Southeast 163 188 5,900 1,041 Climbing Fort Worth Center
11:39PM 35.4292 -97.4669 115° Southeast 182 209 7,000 968 Climbing Fort Worth Center
11:40PM 35.4045 -97.2672 129° Southeast  Level Estimated
11:40PM 35.3978 -97.3806 114° Southeast 185 213 8,400  Level Fort Worth Center
11:41PM 35.3750 -97.3117 112° Southeast 190 219 9,900 1,200 Climbing Fort Worth Center
11:42PM 35.3603 -97.2558 108° East 190 219 10,800 550 Climbing Fort Worth Center
11:43PM 35.3414 -97.1922 110° East 190 219 11,000 100 Climbing Fort Worth Center
11:44PM 35.3119 -97.1183 116° Southeast 211 243 11,000  Level Fort Worth Center
11:45PM 35.2889 -97.0397 110° East 230 265 11,000  Level Fort Worth Center
11:46PM 35.2636 -96.9636 112° Southeast 235 270 11,000  Level Fort Worth Center
11:47PM 35.2383 -96.8900 113° Southeast 235 270 11,000  Level Fort Worth Center
11:48PM 35.2150 -96.8114 110° East 235 270 11,000  Level Fort Worth Center
11:49PM 35.1897 -96.7353 112° Southeast 235 270 11,000  Level Fort Worth Center
11:50PM 35.1642 -96.6594 112° Southeast 235 270 11,000  Level Fort Worth Center
11:51PM 35.1386 -96.5833 112° Southeast 235 270 11,000  Level Fort Worth Center
11:52PM 35.1153 -96.5100 111° Southeast 235 270 11,000  Level Fort Worth Center
11:53PM 35.0894 -96.4317 112° Southeast 235 270 11,000 -353 Level Fort Worth Center
11:54PM 35.0639 -96.3533 112° Southeast 235 270 10,300 -700 Descending Fort Worth Center
11:55PM 35.0403 -96.2725 110° East 246 283 9,600 -900 Descending Fort Worth Center
11:56PM 35.0144 -96.1942 112° Southeast 246 283 8,500 -1,000 Descending Fort Worth Center
11:57PM 34.9928 -96.1183 109° East 246 283 7,600 -893 Descending Fort Worth Center
11:58PM 34.9672 -96.0481 114° Southeast 236 272 6,700 -1,000 Descending Fort Worth Center
11:59PM 34.9433 -95.9825 114° Southeast 223 257 5,600 -1,160 Descending Fort Worth Center
12:00AM 34.9175 -95.9119 114° Southeast 218 251 4,400 -1,350 Descending Fort Worth Center
12:01AM 34.8917 -95.8492 117° Southeast 211 243 2,900 -1,300 Descending Fort Worth Center
12:02AM 34.8642 -95.8142 134° Southeast 182 209 1,800 550 Descending Fort Worth Center
12:03AM 34.8383 -95.7564 119° Southeast 182 209 4,000 2,200 Climbing Fort Worth Center

Login

Don't have an account? Register now (free) for customized features, flight alerts, and more!